createdAt,value
2019-03-18T00:00:33.651Z,96664.63
2019-03-18T00:03:03.760Z,96666.34
2019-03-18T00:05:33.856Z,96668.86
2019-03-18T00:08:03.958Z,96681.42
2019-03-18T00:10:34.260Z,96690.66
2019-03-18T00:13:04.413Z,96679.31
2019-03-18T00:15:34.432Z,96677.13
2019-03-18T00:18:04.549Z,96675.40
2019-03-18T00:20:34.654Z,96668.69
2019-03-18T00:23:04.732Z,96675.40
2019-03-18T00:25:34.772Z,96685.74
2019-03-18T00:28:04.867Z,96676.16
2019-03-18T00:30:34.912Z,96664.38
2019-03-18T00:33:04.999Z,96656.77
2019-03-18T00:35:35.019Z,96650.91
2019-03-18T00:38:05.110Z,96659.35
2019-03-18T00:40:35.153Z,96676.34
2019-03-18T00:43:04.350Z,96677.91
2019-03-18T00:45:34.381Z,96685.85
2019-03-18T00:48:04.426Z,96689.19
2019-03-18T00:50:34.565Z,96695.15
2019-03-18T00:53:04.615Z,96699.23
2019-03-18T00:55:34.683Z,96691.70
2019-03-18T00:58:04.727Z,96691.08
2019-03-18T01:00:34.852Z,96691.08
2019-03-18T01:03:05.119Z,96697.65
2019-03-18T01:05:35.119Z,96697.30
2019-03-18T01:08:05.154Z,96695.64
2019-03-18T01:10:35.177Z,96696.91
2019-03-18T01:13:05.330Z,96699.80
2019-03-18T01:15:35.387Z,96691.80
2019-03-18T01:18:05.436Z,96697.19
2019-03-18T01:20:35.433Z,96707.98
2019-03-18T01:23:05.445Z,96716.38
2019-03-18T01:25:35.599Z,96718.10
2019-03-18T01:28:05.658Z,96716.77
2019-03-18T01:30:35.682Z,96718.73
2019-03-18T01:33:06.072Z,96719.38
2019-03-18T01:35:36.284Z,96720.91
2019-03-18T01:38:06.335Z,96741.16
2019-03-18T01:40:36.345Z,96731.58
2019-03-18T01:43:06.456Z,96732.02
2019-03-18T01:45:40.939Z,96724.48
2019-03-18T01:48:08.265Z,96727.70
2019-03-18T01:50:38.360Z,96742.69
2019-03-18T01:53:08.372Z,96736.02
2019-03-18T01:55:40.438Z,96729.23
2019-03-18T01:58:10.490Z,96729.58
2019-03-18T02:00:43.193Z,96732.45
2019-03-18T02:03:13.252Z,96728.17
2019-03-18T02:05:43.286Z,96734.96
2019-03-18T02:08:13.372Z,96739.91
2019-03-18T02:10:43.456Z,96732.17
2019-03-18T02:13:13.446Z,96732.17
2019-03-18T02:15:52.724Z,96730.05
2019-03-18T02:18:15.294Z,96730.40
2019-03-18T02:20:45.456Z,96726.63
2019-03-18T02:23:15.498Z,96737.03
2019-03-18T02:25:45.567Z,96735.30
2019-03-18T02:28:15.628Z,96729.77
2019-03-18T02:30:45.731Z,96733.62
2019-03-18T02:33:15.802Z,96740.80
2019-03-18T02:35:45.887Z,96731.11
2019-03-18T02:38:15.907Z,96728.05
2019-03-18T02:40:45.995Z,96736.40
2019-03-18T02:43:16.061Z,96739.34
2019-03-18T02:45:46.138Z,96738.91
2019-03-18T02:48:16.166Z,96732.63
2019-03-18T02:50:46.328Z,96732.98
2019-03-18T02:53:16.364Z,96734.59
2019-03-18T02:55:46.425Z,96748.40
2019-03-18T02:58:16.546Z,96753.42
2019-03-18T03:00:46.643Z,96753.42
2019-03-18T03:03:16.658Z,96756.63
2019-03-18T03:05:46.721Z,96762.52
2019-03-18T03:08:16.947Z,96766.67
2019-03-18T03:10:47.007Z,96771.81
2019-03-18T03:13:17.062Z,96768.48
2019-03-18T03:15:47.224Z,96772.69
2019-03-18T03:18:17.262Z,96758.39
2019-03-18T03:20:47.361Z,96756.63
2019-03-18T03:23:17.419Z,96764.16
2019-03-18T03:25:47.436Z,96766.12
2019-03-18T03:28:17.466Z,96771.41
2019-03-18T03:30:47.552Z,96771.41
2019-03-18T03:33:17.581Z,96775.63
2019-03-18T03:35:47.818Z,96769.80
2019-03-18T03:38:17.870Z,96778.58
2019-03-18T03:40:47.947Z,96774.69
2019-03-18T03:43:18.026Z,96776.33
2019-03-18T03:45:48.339Z,96784.68
2019-03-18T03:48:18.280Z,96765.43
2019-03-18T03:50:48.355Z,96763.70
2019-03-18T03:53:18.423Z,96759.47
2019-03-18T03:55:48.468Z,96754.45
2019-03-18T03:58:18.702Z,96753.54
2019-03-18T04:00:48.763Z,96750.64
2019-03-18T04:03:37.219Z,96755.27
2019-03-18T04:05:53.669Z,96756.61
2019-03-18T04:08:24.048Z,96762.14
2019-03-18T04:10:55.748Z,96771.23
2019-03-18T04:13:25.812Z,96771.11
2019-03-18T04:15:55.880Z,96777.84
2019-03-18T04:18:25.967Z,96778.50
2019-03-18T04:20:56.012Z,96771.84
2019-03-18T04:23:26.012Z,96776.13
2019-03-18T04:25:56.050Z,96776.94
2019-03-18T04:28:26.115Z,96776.94
2019-03-18T04:30:56.147Z,96777.64
2019-03-18T04:33:26.152Z,96782.66
2019-03-18T04:35:56.212Z,96789.40
2019-03-18T04:38:26.301Z,96790.66
2019-03-18T04:40:56.406Z,96781.88
2019-03-18T04:43:26.447Z,96783.00
2019-03-18T04:45:56.596Z,96801.04
2019-03-18T04:48:26.632Z,96799.78
2019-03-18T04:50:56.876Z,96796.80
2019-03-18T04:53:26.900Z,96806.06
2019-03-18T04:55:57.165Z,96806.10
2019-03-18T04:58:27.230Z,96802.73
2019-03-18T05:00:57.352Z,96800.92
2019-03-18T05:03:27.446Z,96811.55
2019-03-18T05:05:57.539Z,96809.30
2019-03-18T05:08:27.559Z,96804.62
2019-03-18T05:10:57.592Z,96804.19
2019-03-18T05:13:27.719Z,96805.09
2019-03-18T05:15:57.738Z,96812.72
2019-03-18T05:18:27.800Z,96817.64
2019-03-18T05:20:57.808Z,96817.17
2019-03-18T05:23:27.925Z,96813.02
2019-03-18T05:25:57.978Z,96818.38
2019-03-18T05:28:28.167Z,96824.16
2019-03-18T05:30:58.234Z,96829.53
2019-03-18T05:33:28.365Z,96829.19
2019-03-18T05:35:58.346Z,96816.69
2019-03-18T05:38:28.411Z,96821.28
2019-03-18T05:40:58.456Z,96807.73
2019-03-18T05:43:28.535Z,96784.67
2019-03-18T05:45:58.567Z,96780.96
2019-03-18T05:48:28.690Z,96770.02
2019-03-18T05:50:58.716Z,96763.05
2019-03-18T05:53:28.752Z,96767.30
2019-03-18T05:55:58.954Z,96774.53
2019-03-18T05:58:29.126Z,96780.36
2019-03-18T06:00:59.122Z,96777.76
2019-03-18T06:03:30.620Z,96783.22
2019-03-18T06:06:00.635Z,96797.83
2019-03-18T06:08:30.740Z,96801.12
2019-03-18T06:11:01.008Z,96803.72
2019-03-18T06:13:31.306Z,96808.86
2019-03-18T06:16:02.236Z,96824.22
2019-03-18T06:18:32.299Z,96827.73
2019-03-18T06:21:02.325Z,96831.24
2019-03-18T06:23:32.368Z,96844.00
2019-03-18T06:26:02.379Z,96847.34
2019-03-18T06:28:32.440Z,96837.38
2019-03-18T06:31:02.522Z,96830.03
2019-03-18T06:33:32.529Z,96861.88
2019-03-18T06:36:02.575Z,96861.97
2019-03-18T06:38:32.627Z,96852.48
2019-03-18T06:41:03.009Z,96864.78
2019-03-18T06:43:33.042Z,96857.34
2019-03-18T06:46:03.054Z,96854.14
2019-03-18T06:48:33.059Z,96858.41
2019-03-18T06:51:04.811Z,96863.83
2019-03-18T06:53:34.945Z,96849.20
2019-03-18T06:56:05.001Z,96850.02
2019-03-18T06:58:35.047Z,96843.48
2019-03-18T07:01:05.107Z,96853.73
2019-03-18T07:03:35.135Z,96853.34
2019-03-18T07:06:05.197Z,96864.77
2019-03-18T07:08:35.292Z,96883.34
2019-03-18T07:11:05.445Z,96868.01
2019-03-18T07:13:35.528Z,96876.89
2019-03-18T07:16:05.586Z,96874.38
2019-03-18T07:18:35.671Z,96879.52
2019-03-18T07:21:05.700Z,96880.51
2019-03-18T07:23:35.778Z,96878.64
2019-03-18T07:26:05.803Z,96879.07
2019-03-18T07:28:35.875Z,96884.09
2019-03-18T07:31:05.946Z,96880.88
2019-03-18T07:33:36.047Z,96890.14
2019-03-18T07:36:06.117Z,96892.83
2019-03-18T07:38:36.668Z,96895.34
2019-03-18T07:41:06.641Z,96909.75
2019-03-18T07:43:36.678Z,96906.58
2019-03-18T07:46:06.719Z,96900.77
2019-03-18T07:48:37.112Z,96909.17
2019-03-18T07:51:07.189Z,96909.45
2019-03-18T07:53:37.202Z,96913.06
2019-03-18T07:56:07.244Z,96916.17
2019-03-18T07:58:37.280Z,96926.78
2019-03-18T08:01:07.351Z,96922.69
2019-03-18T08:03:37.476Z,96916.13
2019-03-18T08:06:07.559Z,96917.11
2019-03-18T08:08:37.770Z,96914.00
2019-03-18T08:11:07.852Z,96918.43
2019-03-18T08:13:37.918Z,96911.78
2019-03-18T08:16:07.978Z,96918.97
2019-03-18T08:18:43.057Z,96924.47
2019-03-18T08:21:09.833Z,96929.50
2019-03-18T08:23:39.918Z,96942.88
2019-03-18T08:26:10.006Z,96937.87
2019-03-18T08:28:40.061Z,96945.94
2019-03-18T08:31:10.150Z,96941.48
2019-03-18T08:33:40.244Z,96944.12
2019-03-18T08:36:10.294Z,96946.85
2019-03-18T08:38:40.337Z,96941.61
2019-03-18T08:41:10.400Z,96933.08
2019-03-18T08:43:40.470Z,96937.54
2019-03-18T08:46:13.040Z,96939.80
2019-03-18T08:48:55.109Z,96936.88
2019-03-18T08:51:14.856Z,96934.01
2019-03-18T08:53:44.910Z,96952.14
2019-03-18T08:56:15.746Z,96950.45
2019-03-18T08:58:45.868Z,96967.36
2019-03-18T09:01:18.919Z,96964.69
2019-03-18T09:03:49.731Z,96977.16
2019-03-18T09:06:19.831Z,96975.84
2019-03-18T09:08:49.969Z,96970.08
2019-03-18T09:11:20.116Z,96968.02
2019-03-18T09:13:50.285Z,96969.88
2019-03-18T09:16:20.320Z,96969.88
2019-03-18T09:18:50.408Z,96970.16
2019-03-18T09:21:20.458Z,96972.61
2019-03-18T09:23:50.463Z,96964.82
2019-03-18T09:26:20.466Z,96964.48
2019-03-18T09:28:50.593Z,96963.35
2019-03-18T09:31:20.768Z,96968.98
2019-03-18T09:33:50.980Z,96977.14
2019-03-18T09:36:21.026Z,96983.44
2019-03-18T09:38:51.170Z,96987.01
2019-03-18T09:41:21.207Z,96985.95
2019-03-18T09:43:51.346Z,96989.14
2019-03-18T09:46:21.319Z,96996.91
2019-03-18T09:48:51.545Z,96993.95
2019-03-18T09:51:21.648Z,96993.11
2019-03-18T09:53:51.664Z,96999.45
2019-03-18T09:56:21.847Z,96992.33
2019-03-18T09:58:51.973Z,96990.02
2019-03-18T10:01:22.026Z,96990.16
2019-03-18T10:03:52.116Z,96999.09
2019-03-18T10:06:22.169Z,96998.84
2019-03-18T10:08:52.184Z,96994.20
2019-03-18T10:11:22.242Z,96996.66
2019-03-18T10:13:52.290Z,96997.87
2019-03-18T10:16:22.335Z,96993.06
2019-03-18T10:18:52.479Z,96994.34
2019-03-18T10:21:23.428Z,96989.95
2019-03-18T10:23:53.548Z,96989.89
2019-03-18T10:26:23.629Z,96991.16
2019-03-18T10:28:53.685Z,96994.11
2019-03-18T10:31:23.803Z,96994.57
2019-03-18T10:33:53.932Z,96985.25
2019-03-18T10:36:23.982Z,96984.20
2019-03-18T10:38:54.015Z,96973.66
2019-03-18T10:41:24.098Z,96964.19
2019-03-18T10:43:54.174Z,96963.00
2019-03-18T10:46:26.243Z,96974.02
2019-03-18T10:48:56.129Z,96972.05
2019-03-18T10:51:26.213Z,96973.47
2019-03-18T10:53:56.283Z,96979.95
2019-03-18T10:56:26.279Z,96982.84
2019-03-18T10:58:56.432Z,96997.91
2019-03-18T11:01:26.502Z,97021.99
2019-03-18T11:03:56.590Z,97047.89
2019-03-18T11:06:26.623Z,97055.91
2019-03-18T11:08:56.664Z,97061.85
2019-03-18T11:11:26.733Z,97044.07
2019-03-18T11:13:56.870Z,97052.33
2019-03-18T11:16:26.976Z,97048.55
2019-03-18T11:18:57.043Z,97045.97
2019-03-18T11:21:27.080Z,97035.63
2019-03-18T11:23:57.206Z,97033.48
2019-03-18T11:26:27.280Z,97034.14
2019-03-18T11:28:57.324Z,97026.47
2019-03-18T11:31:27.344Z,97027.36
2019-03-18T11:33:57.506Z,97019.70
2019-03-18T11:36:27.562Z,97029.38
2019-03-18T11:38:57.662Z,97018.14
2019-03-18T11:41:27.719Z,97020.20
2019-03-18T11:43:57.805Z,97019.94
2019-03-18T11:46:27.888Z,97029.51
2019-03-18T11:48:57.981Z,97032.95
2019-03-18T11:51:28.072Z,97022.92
2019-03-18T11:53:58.291Z,97030.39
2019-03-18T11:56:28.290Z,97028.39
2019-03-18T11:58:58.366Z,97034.77
2019-03-18T12:01:28.378Z,97024.37
2019-03-18T12:03:58.421Z,97024.48
2019-03-18T12:06:28.462Z,97021.24
2019-03-18T12:08:58.472Z,97015.38
2019-03-18T12:11:28.521Z,97013.73
2019-03-18T12:13:58.585Z,97005.13
2019-03-18T12:16:28.691Z,97005.13
2019-03-18T12:19:00.034Z,97013.09
2019-03-18T12:21:33.609Z,97018.03
2019-03-18T12:24:05.052Z,97016.84
2019-03-18T12:26:36.279Z,97019.73
2019-03-18T12:29:08.482Z,97014.34
2019-03-18T12:31:40.399Z,97023.95
2019-03-18T12:34:10.522Z,97024.61
2019-03-18T12:36:41.066Z,97016.95
2019-03-18T12:39:12.370Z,97026.28
2019-03-18T12:41:43.892Z,97026.33
2019-03-18T12:44:17.339Z,97017.83
2019-03-18T12:46:48.282Z,97013.98
2019-03-18T12:49:19.302Z,97017.86
2019-03-18T12:51:49.444Z,97006.18
2019-03-18T12:54:20.730Z,97011.09
2019-03-18T12:56:52.356Z,97018.11
2019-03-18T12:59:22.498Z,97015.08
2019-03-18T13:01:53.837Z,97013.84
2019-03-18T13:04:26.193Z,97010.51
2019-03-18T13:06:56.261Z,97013.03
2019-03-18T13:09:26.330Z,97011.31
2019-03-18T13:11:56.392Z,97017.34
2019-03-18T13:14:26.575Z,97009.38
2019-03-18T13:16:56.623Z,97014.23
2019-03-18T13:19:26.647Z,97008.73
2019-03-18T13:21:56.655Z,97016.19
2019-03-18T13:24:26.677Z,97019.75
2019-03-18T13:26:58.681Z,97011.17
2019-03-18T13:29:28.541Z,97012.00
2019-03-18T13:31:58.660Z,97014.41
2019-03-18T13:34:28.714Z,97019.31
2019-03-18T13:36:58.809Z,97015.42
2019-03-18T13:39:28.860Z,97018.84
2019-03-18T13:41:58.945Z,97027.66
2019-03-18T13:44:28.965Z,97025.53
2019-03-18T13:46:59.165Z,97026.31
2019-03-18T13:49:29.190Z,97040.44
2019-03-18T13:51:59.244Z,97037.40
2019-03-18T13:54:32.242Z,97038.34
2019-03-18T13:57:01.151Z,97037.00
2019-03-18T13:59:31.241Z,97040.41
2019-03-18T14:02:01.418Z,97029.08
2019-03-18T14:04:31.560Z,97033.05
2019-03-18T14:07:01.675Z,97035.20
2019-03-18T14:09:33.922Z,97029.25
2019-03-18T14:12:03.962Z,97029.25
2019-03-18T14:14:34.013Z,97030.05
2019-03-18T14:17:04.235Z,97026.35
2019-03-18T14:19:34.321Z,97034.36
2019-03-18T14:22:04.356Z,97028.63
2019-03-18T14:24:34.448Z,97025.00
2019-03-18T14:27:04.488Z,97024.33
2019-03-18T14:29:34.584Z,97023.33
2019-03-18T14:32:04.629Z,97029.88
2019-03-18T14:34:34.716Z,97031.73
2019-03-18T14:37:04.751Z,97029.73
2019-03-18T14:39:34.832Z,97028.30
2019-03-18T14:42:04.959Z,97038.17
2019-03-18T14:44:35.013Z,97034.72
2019-03-18T14:47:05.093Z,97032.93
2019-03-18T14:49:35.123Z,97031.75
2019-03-18T14:52:05.377Z,97033.91
2019-03-18T14:54:35.390Z,97040.18
2019-03-18T14:57:05.585Z,97043.41
2019-03-18T14:59:35.620Z,97042.83
2019-03-18T15:02:05.803Z,97048.84
2019-03-18T15:04:35.787Z,97056.68
2019-03-18T15:07:05.890Z,97058.95
2019-03-18T15:09:35.937Z,97055.39
2019-03-18T15:12:05.961Z,97056.77
2019-03-18T15:14:35.980Z,97056.20
2019-03-18T15:17:06.169Z,97058.81
2019-03-18T15:19:36.203Z,97051.46
2019-03-18T15:22:06.203Z,97049.57
2019-03-18T15:24:36.274Z,97047.37
2019-03-18T15:27:06.416Z,97052.69
2019-03-18T15:29:36.554Z,97048.92
2019-03-18T15:32:06.592Z,97056.45
2019-03-18T15:34:36.626Z,97060.59
2019-03-18T15:37:06.648Z,97064.59
2019-03-18T15:39:36.741Z,97064.71
2019-03-18T15:42:06.886Z,97064.70
2019-03-18T15:44:36.961Z,97056.73
2019-03-18T15:47:07.130Z,97063.78
2019-03-18T15:49:37.244Z,97065.36
2019-03-18T15:52:11.295Z,97065.43
2019-03-18T15:54:39.255Z,97069.06
2019-03-18T15:57:09.371Z,97062.48
2019-03-18T15:59:39.483Z,97058.94
2019-03-18T16:02:09.610Z,97064.55
2019-03-18T16:04:39.789Z,97070.97
2019-03-18T16:07:09.855Z,97071.59
2019-03-18T16:09:39.972Z,97076.45
2019-03-18T16:12:12.255Z,97079.75
2019-03-18T16:14:41.801Z,97078.69
2019-03-18T16:17:11.948Z,97076.67
2019-03-18T16:19:42.007Z,97083.92
2019-03-18T16:22:23.052Z,97090.42
2019-03-18T16:24:44.128Z,97098.02
2019-03-18T16:27:14.234Z,97109.73
2019-03-18T16:29:44.294Z,97100.83
2019-03-18T16:32:14.457Z,97110.77
2019-03-18T16:34:44.498Z,97109.00
2019-03-18T16:37:14.809Z,97113.89
2019-03-18T16:39:45.288Z,97111.66
2019-03-18T16:42:15.793Z,97111.86
2019-03-18T16:44:46.071Z,97126.77
2019-03-18T16:47:16.868Z,97125.80
2019-03-18T16:49:47.233Z,97130.05
2019-03-18T16:52:17.627Z,97132.13
2019-03-18T16:54:48.185Z,97134.09
2019-03-18T16:57:18.501Z,97139.78
2019-03-18T16:59:48.940Z,97143.93
2019-03-18T17:02:19.373Z,97154.02
2019-03-18T17:04:49.465Z,97154.02
2019-03-18T17:07:19.927Z,97154.84
2019-03-18T17:09:50.188Z,97154.77
2019-03-18T17:12:20.563Z,97167.27
2019-03-18T17:14:52.367Z,97168.03
2019-03-18T17:17:23.139Z,97173.79
2019-03-18T17:19:53.897Z,97181.20
2019-03-18T17:22:24.378Z,97179.91
2019-03-18T17:24:54.686Z,97180.23
2019-03-18T17:27:25.074Z,97187.75
2019-03-18T17:29:55.294Z,97185.16
2019-03-18T17:32:26.860Z,97178.31
2019-03-18T17:34:57.156Z,97181.55
2019-03-18T17:37:27.530Z,97185.60
2019-03-18T17:39:57.819Z,97189.66
2019-03-18T17:42:28.128Z,97191.19
2019-03-18T17:44:58.258Z,97199.27
2019-03-18T17:47:28.268Z,97204.14
2019-03-18T17:49:58.383Z,97207.45
2019-03-18T17:52:28.427Z,97215.01
2019-03-18T17:54:58.471Z,97216.53
2019-03-18T17:57:28.473Z,97217.24
2019-03-18T17:59:58.496Z,97217.16
2019-03-18T18:02:28.634Z,97223.38
2019-03-18T18:05:03.188Z,97231.23
2019-03-18T18:07:30.433Z,97229.45
2019-03-18T18:10:00.552Z,97230.16
2019-03-18T18:12:30.596Z,97234.20
2019-03-18T18:15:00.704Z,97239.94
2019-03-18T18:17:30.760Z,97245.58
2019-03-18T18:20:00.788Z,97251.96
2019-03-18T18:22:30.858Z,97257.17
2019-03-18T18:25:00.963Z,97256.17
2019-03-18T18:27:31.169Z,97252.99
2019-03-18T18:30:01.221Z,97260.23
2019-03-18T18:32:31.285Z,97261.83
2019-03-18T18:35:01.301Z,97261.52
2019-03-18T18:37:31.342Z,97269.21
2019-03-18T18:40:01.354Z,97272.02
2019-03-18T18:42:31.437Z,97271.84
2019-03-18T18:45:01.509Z,97270.48
2019-03-18T18:47:31.626Z,97280.66
2019-03-18T18:50:01.723Z,97285.53
2019-03-18T18:52:31.919Z,97297.95
2019-03-18T18:55:02.047Z,97294.38
2019-03-18T18:57:32.080Z,97294.04
2019-03-18T19:00:02.353Z,97298.52
2019-03-18T19:02:32.390Z,97302.16
2019-03-18T19:05:02.546Z,97302.86
2019-03-18T19:07:32.773Z,97305.99
2019-03-18T19:10:02.987Z,97312.56
2019-03-18T19:12:33.075Z,97305.92
2019-03-18T19:15:03.251Z,97306.59
2019-03-18T19:17:33.376Z,97299.50
2019-03-18T19:20:03.567Z,97306.06
2019-03-18T19:22:33.690Z,97304.40
2019-03-18T19:25:03.831Z,97308.16
2019-03-18T19:27:33.911Z,97308.05
2019-03-18T19:30:04.639Z,97307.89
2019-03-18T19:32:34.766Z,97306.05
2019-03-18T19:35:05.030Z,97315.17
2019-03-18T19:37:35.205Z,97318.41
2019-03-18T19:40:06.252Z,97321.72
2019-03-18T19:42:36.387Z,97327.61
2019-03-18T19:45:07.487Z,97325.82
2019-03-18T19:47:37.597Z,97331.66
2019-03-18T19:50:09.874Z,97334.34
2019-03-18T19:52:40.063Z,97332.98
2019-03-18T19:55:10.217Z,97344.72
2019-03-18T19:57:40.517Z,97340.52
2019-03-18T20:00:13.500Z,97347.93
2019-03-18T20:02:43.692Z,97351.36
2019-03-18T20:05:15.302Z,97356.83
2019-03-18T20:07:45.770Z,97353.06
2019-03-18T20:10:16.093Z,97350.11
2019-03-18T20:12:46.299Z,97358.47
2019-03-18T20:15:16.561Z,97358.41
2019-03-18T20:17:46.857Z,97366.27
2019-03-18T20:20:17.034Z,97370.25
2019-03-18T20:22:47.179Z,97380.50
2019-03-18T20:25:17.430Z,97382.59
2019-03-18T20:27:48.625Z,97383.84
2019-03-18T20:30:19.650Z,97378.83
2019-03-18T20:32:49.812Z,97381.22
2019-03-18T20:35:20.249Z,97383.41
2019-03-18T20:37:51.836Z,97381.55
2019-03-18T20:40:22.140Z,97385.20
2019-03-18T20:42:52.183Z,97379.91
2019-03-18T20:45:22.268Z,97389.89
2019-03-18T20:47:52.388Z,97397.23
2019-03-18T20:50:22.537Z,97398.48
2019-03-18T20:52:52.623Z,97409.11
2019-03-18T20:55:22.706Z,97412.27
2019-03-18T21:00:22.045Z,97418.82
2019-03-18T21:02:52.111Z,97419.14
2019-03-18T21:05:24.826Z,97415.70
2019-03-18T21:07:54.056Z,97418.73
2019-03-18T21:10:24.109Z,97421.70
2019-03-18T21:12:54.209Z,97424.85
2019-03-18T21:15:24.511Z,97426.48
2019-03-18T21:17:54.598Z,97423.98
2019-03-18T21:20:24.762Z,97431.38
2019-03-18T21:22:54.857Z,97431.21
2019-03-18T21:25:24.930Z,97433.59
2019-03-18T21:27:55.042Z,97430.16
2019-03-18T21:30:25.230Z,97433.59
2019-03-18T21:32:55.322Z,97438.61
2019-03-18T21:35:25.433Z,97441.92
2019-03-18T21:37:55.528Z,97442.05
2019-03-18T21:40:25.674Z,97442.23
2019-03-18T21:42:55.719Z,97434.08
2019-03-18T21:45:25.944Z,97433.05
2019-03-18T21:47:56.012Z,97435.07
2019-03-18T21:50:26.162Z,97441.53
2019-03-18T21:52:56.297Z,97440.16
2019-03-18T21:55:26.467Z,97449.05
2019-03-18T21:57:56.497Z,97441.53
2019-03-18T22:00:26.690Z,97438.22
2019-03-18T22:02:56.733Z,97450.63
2019-03-18T22:05:26.798Z,97451.43
2019-03-18T22:07:56.939Z,97454.87
2019-03-18T22:10:27.077Z,97450.63
2019-03-18T22:12:57.139Z,97451.56
2019-03-18T22:15:27.182Z,97455.77
2019-03-18T22:17:57.311Z,97455.00
2019-03-18T22:20:27.388Z,97460.78
2019-03-18T22:22:57.506Z,97464.29
2019-03-18T22:25:27.694Z,97470.87
2019-03-18T22:27:57.738Z,97467.11
2019-03-18T22:30:27.899Z,97460.84
2019-03-18T22:32:58.114Z,97462.09
2019-03-18T22:35:28.241Z,97460.23
2019-03-18T22:37:58.833Z,97460.10
2019-03-18T22:40:28.872Z,97465.75
2019-03-18T22:42:59.011Z,97462.31
2019-03-18T22:45:29.304Z,97461.38
2019-03-18T22:47:59.465Z,97462.81
2019-03-18T22:50:29.623Z,97461.88
2019-03-18T22:52:59.693Z,97460.81
2019-03-18T22:55:29.792Z,97470.70
2019-03-18T22:57:59.809Z,97473.08
2019-03-18T23:00:39.400Z,97470.89
2019-03-18T23:03:09.424Z,97469.47
2019-03-18T23:05:39.498Z,97471.97
2019-03-18T23:08:09.514Z,97467.62
2019-03-18T23:10:39.573Z,97470.13
2019-03-18T23:13:09.617Z,97467.45
2019-03-18T23:15:39.649Z,97469.96
2019-03-18T23:18:09.675Z,97469.02
2019-03-18T23:20:39.775Z,97467.32
2019-03-18T23:23:09.907Z,97468.13
2019-03-18T23:25:39.953Z,97471.26
2019-03-18T23:28:10.124Z,97475.20
2019-03-18T23:30:40.190Z,97468.38
2019-03-18T23:33:10.266Z,97475.83
2019-03-18T23:35:40.433Z,97479.89
2019-03-18T23:38:10.502Z,97481.59
2019-03-18T23:40:40.529Z,97487.41
2019-03-18T23:43:10.645Z,97475.83
2019-03-18T23:45:40.729Z,97483.02
2019-03-18T23:48:10.889Z,97477.87
2019-03-18T23:50:41.093Z,97492.41
2019-03-18T23:53:11.230Z,97496.83
2019-03-18T23:55:41.275Z,97495.89
2019-03-18T23:58:11.356Z,97499.64
